ADDS METAR Data INFO
IDs: Format: Raw Decoded Include TAF

Data at: 1239 UTC 25 Jul 2017

KECS 251235Z AUTO 34003KT 10SM CLR 20/06 A2996 RMK AO2
KECS 251215Z AUTO 00000KT 10SM CLR 20/06 A2995 RMK AO2
KECS 251155Z AUTO 03006KT 10SM CLR 20/06 A2995 RMK AO2
KECS 251135Z AUTO 02007KT 10SM CLR 20/06 A2995 RMK AO2
KECS 251115Z AUTO 01007KT 10SM CLR 20/06 A2995 RMK AO2
KECS 251055Z AUTO 01007KT 10SM CLR 18/06 A2995 RMK AO2
KECS 251035Z AUTO 32006KT 10SM CLR 18/06 A2995 RMK AO2
KECS 251015Z AUTO 00000KT 10SM CLR 20/06 A2993 RMK AO2
KECS 250955Z AUTO 14003KT 10SM CLR 20/06 A2993 RMK AO2
KECS 250935Z AUTO 22005KT 10SM CLR 22/05 A2992 RMK AO2
KECS 250915Z AUTO 08003KT 10SM CLR 22/05 A2991 RMK AO2
KECS 250855Z AUTO 03005KT 10SM CLR 22/05 A2994 RMK AO2
KECS 250835Z AUTO 19009G18KT 10SM CLR 28/03 A2993 RMK AO2
KECS 250815Z AUTO 10014G18KT 10SM CLR 28/02 A2991 RMK AO2
KECS 250755Z AUTO 09017G21KT 10SM CLR 28/03 A2991 RMK AO2 LTG DSNT N
KECS 250735Z AUTO 10015G19KT 10SM CLR 28/05 A2991 RMK AO2
KECS 250715Z AUTO 12011G17KT 10SM CLR 27/05 A2992 RMK AO2
KECS 250655Z AUTO 11011G15KT 10SM CLR 22/05 A2994 RMK AO2
KECS 250635Z AUTO 14007G15KT 10SM CLR 23/05 A2995 RMK AO2 LTG DSNT NW
KECS 250615Z AUTO 18008KT 092V202 10SM CLR 25/04 A2994 RMK AO2
KECS 250555Z AUTO 08012KT 10SM CLR 28/03 A2992 RMK AO2
KECS 250535Z AUTO 08011G16KT 10SM CLR 28/03 A2992 RMK AO2
KECS 250515Z AUTO 07012KT 10SM CLR 28/03 A2992 RMK AO2
KECS 250455Z AUTO 07014G18KT 10SM CLR 28/04 A2992 RMK AO2
KECS 250435Z AUTO 07012G17KT 10SM CLR 28/04 A2992 RMK AO2
KECS 250415Z AUTO 07014G18KT 10SM CLR 28/04 A2992 RMK AO2
KECS 250355Z AUTO 07013G19KT 10SM CLR 29/04 A2991 RMK AO2
KECS 250335Z AUTO 08011G15KT 10SM CLR 30/03 A2991 RMK AO2
KECS 250315Z AUTO 08011KT 10SM CLR 30/01 A2990 RMK AO2
KECS 250255Z AUTO 05005KT 10SM CLR 28/00 A2989 RMK AO2
KECS 250235Z AUTO 04005KT 10SM CLR 29/00 A2989 RMK AO2
KECS 250215Z AUTO 05004KT 10SM CLR 31/00 A2989 RMK AO2
KECS 250155Z AUTO 06005KT 10SM CLR 32/00 A2988 RMK AO2
KECS 250135Z AUTO 06004KT 10SM CLR 33/00 A2988 RMK AO2
KECS 250115Z AUTO 02005KT 10SM CLR 34/00 A2988 RMK AO2
KECS 250055Z AUTO 08004KT 10SM CLR 35/00 A2988 RMK AO2
KECS 250035Z AUTO 34005KT 10SM CLR 35/00 A2988 RMK AO2
KECS 250015Z AUTO 05006KT 10SM CLR 35/00 A2989 RMK AO2
KECS 242355Z AUTO 01006KT 10SM CLR 36/00 A2989 RMK AO2
KECS 242335Z AUTO 35008KT 10SM CLR 36/00 A2989 RMK AO2
KECS 242315Z AUTO 34008KT 302V012 10SM CLR 36/00 A2990 RMK AO2
KECS 242255Z AUTO 34006KT 10SM CLR 36/00 A2990 RMK AO2
KECS 242235Z AUTO 03006KT 10SM CLR 36/M01 A2990 RMK AO2
KECS 242215Z AUTO 36010G21KT 10SM CLR 36/M01 A2990 RMK AO2
KECS 242155Z AUTO 36010G21KT 10SM CLR 36/M01 A2990 RMK AO2
KECS 242135Z AUTO 35012G18KT 10SM CLR 36/00 A2991 RMK AO2
KECS 242115Z AUTO 01006G18KT 322V052 10SM CLR 35/M01 A2991 RMK AO2
KECS 242055Z AUTO 33016G21KT 10SM CLR 36/M02 A2991 RMK AO2
KECS 242035Z AUTO 02006G19KT 10SM CLR 35/00 A2991 RMK AO2
KECS 242015Z AUTO 33013G20KT 10SM CLR 35/00 A2992 RMK AO2
KECS 241955Z AUTO 33013G18KT 10SM CLR 35/M01 A2992 RMK AO2 LTG DSNT NE
KECS 241935Z AUTO 35010G21KT 312V032 10SM CLR 34/00 A2992 RMK AO2
KECS 241915Z AUTO 32011G17KT 10SM CLR 35/01 A2993 RMK AO2
KECS 241855Z AUTO 29013G19KT 10SM CLR 33/02 A2994 RMK AO2
KECS 241835Z AUTO 00000KT 10SM CLR 32/05 A2994 RMK AO2
KECS 241815Z AUTO 25004KT 10SM CLR 32/05 A2994 RMK AO2
KECS 241755Z AUTO 31003KT 10SM CLR 31/06 A2995 RMK AO2
KECS 241735Z AUTO 00000KT 10SM CLR 31/07 A2995 RMK AO2
KECS 241715Z AUTO 00000KT 10SM CLR 30/07 A2995 RMK AO2
KECS 241655Z AUTO 00000KT 10SM CLR 30/07 A2995 RMK AO2
KECS 241635Z AUTO 14004KT 10SM CLR 29/07 A2995 RMK AO2
KECS 241615Z AUTO 13005KT 10SM CLR 28/08 A2995 RMK AO2
KECS 241555Z AUTO 13008KT 112V182 10SM CLR 28/08 A2996 RMK AO2
KECS 241535Z AUTO 14008G17KT 112V172 10SM CLR 27/08 A2996 RMK AO2
KECS 241515Z AUTO 16013G17KT 122V182 10SM CLR 26/08 A2996 RMK AO2
KECS 241455Z AUTO 17014G22KT 10SM CLR 26/08 A2996 RMK AO2
KECS 241435Z AUTO 15014G19KT 10SM CLR 26/08 A2996 RMK AO2
KECS 241415Z AUTO 12010G17KT 10SM CLR 26/08 A2997 RMK AO2
KECS 241355Z AUTO 12012KT 10SM CLR 25/08 A2996 RMK AO2
KECS 241335Z AUTO 12012KT 10SM CLR 25/08 A2996 RMK AO2
KECS 241315Z AUTO 12010KT 10SM CLR 24/08 A2996 RMK AO2
KECS 241255Z AUTO 12011KT 10SM CLR 23/08 A2996 RMK AO2
KECS 241235Z AUTO 11010KT 10SM CLR 23/08 A2995 RMK AO2
KECS 241215Z AUTO 12010KT 10SM CLR 22/08 A2995 RMK AO2
KECS 241155Z AUTO 12010KT 10SM CLR 22/07 A2994 RMK AO2
KECS 241135Z AUTO 12010KT 10SM CLR 22/07 A2994 RMK AO2 LTG DSNT NE
KECS 241115Z AUTO 12011KT 10SM CLR 23/07 A2994 RMK AO2
KECS 241055Z AUTO 12012G16KT 10SM CLR 23/07 A2993 RMK AO2
KECS 241035Z AUTO 12010KT 10SM CLR 23/07 A2993 RMK AO2
KECS 241015Z AUTO 12012G16KT 10SM CLR 23/06 A2993 RMK AO2 LTG DSNT NE
KECS 240955Z AUTO 12012G16KT 10SM CLR 24/06 A2993 RMK AO2
KECS 240935Z AUTO 12010KT 10SM CLR 24/06 A2994 RMK AO2 LTG DSNT NE
KECS 240915Z AUTO 12009G16KT 10SM CLR 25/06 A2995 RMK AO2
KECS 240855Z AUTO 12010G17KT 10SM CLR 26/06 A2994 RMK AO2 LTG DSNT NE AND E
KECS 240835Z AUTO 11011G17KT 10SM CLR 26/05 A2995 RMK AO2 LTG DSNT N
KECS 240815Z AUTO 08012G18KT 10SM TS CLR 26/06 A2996 RMK AO2 LTG DSNT N AND NE
KECS 240755Z AUTO 09003G16KT 10SM TS CLR 26/05 A2998 RMK AO2 LTG DSNT N AND NW
KECS 240735Z AUTO 34015G20KT 10SM VCTS CLR 26/06 A3000 RMK AO2 LTG DSNT N AND NW
KECS 240715Z AUTO 13011G23KT 10SM CLR 26/06 A2996 RMK AO2 LTG DSNT N AND NW
KECS 240655Z AUTO 12014G26KT 10SM VCTS CLR 26/06 A2995 RMK AO2 LTG DSNT N AND NW
KECS 240635Z AUTO 11018G28KT 10SM CLR 26/06 A2995 RMK AO2 LTG DSNT NW
KECS 240615Z AUTO 10020G31KT 10SM CLR 26/06 A2995 RMK AO2 LTG DSNT W
KECS 240555Z AUTO 12016G30KT 10SM CLR 26/06 A2995 RMK AO2 LTG DSNT NW
KECS 240535Z AUTO 12015G31KT 10SM CLR 26/06 A2996 RMK AO2
KECS 240515Z AUTO 11017G27KT 10SM CLR 27/07 A2995 RMK AO2
KECS 240455Z AUTO 11015G27KT 10SM CLR 27/07 A2997 RMK AO2
KECS 240435Z AUTO 10014G21KT 10SM CLR 27/07 A2998 RMK AO2 LTG DSNT NW
KECS 240415Z AUTO 10015G19KT 10SM CLR 27/07 A2998 RMK AO2
KECS 240355Z AUTO 11014KT 10SM CLR 27/07 A2998 RMK AO2
KECS 240335Z AUTO 10015KT 10SM CLR 27/07 A2998 RMK AO2 LTG DSNT W
KECS 240315Z AUTO 10013G18KT 10SM CLR 27/07 A2998 RMK AO2
KECS 240255Z AUTO 11011KT 10SM CLR 28/07 A2998 RMK AO2
KECS 240235Z AUTO 11013G19KT 10SM CLR 28/06 A2998 RMK AO2
KECS 240215Z AUTO 11013G19KT 10SM CLR 29/06 A2998 RMK AO2
KECS 240155Z AUTO 13012G20KT 10SM CLR 30/05 A2998 RMK AO2
KECS 240135Z AUTO 14010KT 10SM CLR 30/01 A2999 RMK AO2
KECS 240115Z AUTO 15006KT 10SM CLR 32/01 A2999 RMK AO2
KECS 240055Z AUTO 10005KT 10SM CLR 32/00 A2999 RMK AO2